Time;durP1;ratioP1;P1;durP2;ratioP2;P2;SDS_P1;SDS_P2;PMS_P1;PMS_P2;Temp;Humidity;BMP_temperature;BMP_pressure;BME280_temperature;BME280_humidity;BME280_pressure;Samples;Min_cycle;Max_cycle;Signal;HPM_P1;HPM_P2
2020/12/23 00:02:09;;;;;;;4.95;3.13;;;;;;;;;;5022313;28;20144;-82
2020/12/23 00:04:36;;;;;;;5.80;2.90;;;;;;;;;;5021819;28;20053;-80
2020/12/23 00:07:05;;;;;;;6.95;3.03;;;;;;;;;;5024824;28;20049;-78
2020/12/23 00:09:31;;;;;;;5.75;2.75;;;;;;;;;;5025295;28;20049;-81
2020/12/23 00:11:57;;;;;;;9.32;3.33;;;;;;;;;;5021657;28;20049;-80
2020/12/23 00:14:23;;;;;;;6.05;3.00;;;;;;;;;;5019899;28;20050;-80
2020/12/23 00:16:50;;;;;;;5.68;3.67;;;;;;;;;;5021435;28;20079;-81
2020/12/23 00:19:16;;;;;;;7.30;3.72;;;;;;;;;;5022673;28;20046;-81
2020/12/23 00:21:42;;;;;;;7.38;3.03;;;;;;;;;;5023111;28;20052;-80
2020/12/23 00:24:08;;;;;;;7.45;3.95;;;;;;;;;;5022899;28;20666;-81
2020/12/23 00:26:34;;;;;;;5.78;3.55;;;;;;;;;;5023103;28;20388;-80
2020/12/23 00:29:00;;;;;;;5.55;2.80;;;;;;;;;;5024475;28;20068;-81
2020/12/23 00:31:26;;;;;;;4.88;3.38;;;;;;;;;;5021125;28;20049;-80
2020/12/23 00:33:54;;;;;;;5.65;3.53;;;;;;;;;;5020222;28;20053;-79
2020/12/23 00:36:21;;;;;;;9.15;3.28;;;;;;;;;;5023290;28;20059;-77
2020/12/23 00:38:47;;;;;;;7.70;3.22;;;;;;;;;;5024901;28;20053;-77
2020/12/23 00:41:17;;;;;;;5.80;3.58;;;;;;;;;;5023074;28;20041;-77
2020/12/23 00:43:43;;;;;;;6.40;3.00;;;;;;;;;;5029250;28;20411;-78
2020/12/23 00:46:10;;;;;;;20.42;3.38;;;;;;;;;;5025638;28;20045;-78
2020/12/23 00:48:36;;;;;;;6.43;2.90;;;;;;;;;;5025819;28;20042;-77
2020/12/23 00:51:06;;;;;;;4.38;2.75;;;;;;;;;;5027202;28;20503;-77
2020/12/23 00:53:32;;;;;;;7.20;2.53;;;;;;;;;;5023694;28;20144;-78
2020/12/23 00:55:58;;;;;;;4.70;2.75;;;;;;;;;;5022734;28;20046;-79
2020/12/23 00:58:24;;;;;;;7.22;2.85;;;;;;;;;;5022796;28;20058;-79
2020/12/23 01:00:51;;;;;;;5.20;3.08;;;;;;;;;;5023298;28;20487;-81
2020/12/23 01:03:17;;;;;;;5.32;2.38;;;;;;;;;;5025268;28;20085;-79
2020/12/23 01:05:43;;;;;;;6.93;3.03;;;;;;;;;;5026448;28;20496;-78
2020/12/23 01:08:11;;;;;;;6.00;2.97;;;;;;;;;;5018901;28;20129;-79
2020/12/23 01:10:37;;;;;;;6.78;3.20;;;;;;;;;;5024738;28;20049;-83
2020/12/23 01:13:03;;;;;;;4.30;3.17;;;;;;;;;;5025306;28;20045;-83
2020/12/23 01:15:29;;;;;;;6.50;2.78;;;;;;;;;;5025113;28;20056;-82
2020/12/23 01:17:55;;;;;;;4.43;2.92;;;;;;;;;;5025651;28;20053;-84
2020/12/23 01:20:21;;;;;;;5.78;2.80;;;;;;;;;;5023438;28;20422;-83
2020/12/23 01:22:47;;;;;;;5.07;2.97;;;;;;;;;;5027347;28;20059;-84
2020/12/23 01:25:13;;;;;;;6.05;2.83;;;;;;;;;;5019474;28;20041;-83
2020/12/23 01:27:39;;;;;;;5.30;2.90;;;;;;;;;;5025932;28;20041;-86
2020/12/23 01:30:06;;;;;;;6.13;2.88;;;;;;;;;;5023769;28;20037;-86
2020/12/23 01:32:32;;;;;;;3.83;2.13;;;;;;;;;;5025903;28;20481;-85
2020/12/23 01:34:58;;;;;;;4.65;2.90;;;;;;;;;;5021130;28;20072;-85
2020/12/23 01:37:24;;;;;;;4.35;2.78;;;;;;;;;;5019964;28;20057;-84
2020/12/23 01:39:51;;;;;;;3.65;2.05;;;;;;;;;;5025301;28;20045;-84
2020/12/23 01:42:18;;;;;;;5.53;2.85;;;;;;;;;;5022603;28;20411;-85
2020/12/23 01:44:44;;;;;;;4.60;2.65;;;;;;;;;;5022427;28;20049;-84
2020/12/23 01:47:14;;;;;;;3.75;2.58;;;;;;;;;;5026801;28;20057;-81
2020/12/23 01:49:40;;;;;;;4.38;2.40;;;;;;;;;;5025845;28;20050;-81
2020/12/23 01:52:07;;;;;;;5.07;2.92;;;;;;;;;;5021947;28;20053;-81
2020/12/23 01:54:33;;;;;;;5.10;3.17;;;;;;;;;;5022043;28;20077;-78
2020/12/23 01:57:00;;;;;;;3.70;2.38;;;;;;;;;;5022059;28;20423;-78
2020/12/23 01:59:26;;;;;;;4.43;2.80;;;;;;;;;;5023281;28;20045;-79
2020/12/23 02:02:01;;;;;;;7.25;2.38;;;;;;;;;;5028823;28;20048;-80
2020/12/23 02:04:32;;;;;;;4.72;2.65;;;;;;;;;;5015159;28;20502;-81
2020/12/23 02:06:58;;;;;;;5.25;2.65;;;;;;;;;;5017993;28;20053;-81
2020/12/23 02:09:25;;;;;;;4.00;2.63;;;;;;;;;;5024444;28;20068;-80
2020/12/23 02:11:51;;;;;;;4.43;2.58;;;;;;;;;;5024934;28;20053;-80
2020/12/23 02:14:18;;;;;;;3.78;2.40;;;;;;;;;;5020305;28;20446;-79
2020/12/23 02:16:44;;;;;;;6.07;3.42;;;;;;;;;;5020456;28;20133;-79
2020/12/23 02:19:12;;;;;;;3.88;2.22;;;;;;;;;;5019946;28;20145;-79
2020/12/23 02:21:39;;;;;;;4.05;2.30;;;;;;;;;;5021158;28;20057;-80
2020/12/23 02:24:05;;;;;;;5.93;3.13;;;;;;;;;;5020854;28;20052;-77
2020/12/23 02:26:31;;;;;;;5.43;2.70;;;;;;;;;;5023177;28;20426;-78
2020/12/23 02:28:57;;;;;;;4.05;2.47;;;;;;;;;;5020332;28;20403;-78
2020/12/23 02:31:23;;;;;;;5.10;2.88;;;;;;;;;;5019858;28;20435;-78
2020/12/23 02:33:49;;;;;;;3.47;1.98;;;;;;;;;;5023215;28;20053;-77
2020/12/23 02:36:15;;;;;;;4.80;2.88;;;;;;;;;;5024069;28;20494;-77
2020/12/23 02:38:42;;;;;;;6.65;2.45;;;;;;;;;;5019163;28;20053;-77
2020/12/23 02:41:08;;;;;;;5.65;2.95;;;;;;;;;;5018151;28;20045;-78
2020/12/23 02:43:34;;;;;;;3.60;2.17;;;;;;;;;;5022866;28;20069;-79
2020/12/23 02:46:01;;;;;;;4.05;2.00;;;;;;;;;;5019428;28;20049;-79
2020/12/23 02:48:27;;;;;;;4.10;2.35;;;;;;;;;;5027573;28;20398;-79
2020/12/23 02:50:53;;;;;;;3.10;2.03;;;;;;;;;;5019165;28;20045;-78
2020/12/23 02:53:22;;;;;;;6.70;2.28;;;;;;;;;;5039259;28;20049;-79
2020/12/23 02:55:48;;;;;;;3.47;1.92;;;;;;;;;;5025154;28;20402;-79
2020/12/23 02:58:14;;;;;;;3.53;2.05;;;;;;;;;;5022573;28;20057;-80
2020/12/23 03:00:41;;;;;;;4.70;2.20;;;;;;;;;;5029228;28;20041;-81
2020/12/23 03:03:07;;;;;;;4.53;2.75;;;;;;;;;;5019210;28;20072;-80
2020/12/23 03:05:33;;;;;;;3.15;1.92;;;;;;;;;;5021525;28;20054;-80
2020/12/23 03:07:59;;;;;;;3.65;2.28;;;;;;;;;;5027526;28;20071;-80
2020/12/23 03:10:25;;;;;;;5.65;2.38;;;;;;;;;;5025167;28;20138;-79
2020/12/23 03:12:55;;;;;;;4.03;2.30;;;;;;;;;;5023042;28;20053;-81
2020/12/23 03:15:21;;;;;;;3.00;2.05;;;;;;;;;;5026435;28;20052;-80
2020/12/23 03:17:47;;;;;;;4.13;2.58;;;;;;;;;;5026307;28;20538;-81
2020/12/23 03:20:13;;;;;;;4.80;2.20;;;;;;;;;;5024354;28;20055;-81
2020/12/23 03:22:39;;;;;;;5.72;2.33;;;;;;;;;;5029123;28;20411;-81
2020/12/23 03:25:05;;;;;;;3.42;2.13;;;;;;;;;;5027073;28;20487;-81
2020/12/23 03:27:31;;;;;;;4.43;2.00;;;;;;;;;;5029338;28;20045;-79
2020/12/23 03:29:57;;;;;;;4.47;2.58;;;;;;;;;;5029335;28;20410;-80
2020/12/23 03:32:24;;;;;;;4.15;1.88;;;;;;;;;;5026220;28;20042;-81
2020/12/23 03:34:50;;;;;;;5.60;2.10;;;;;;;;;;5025152;28;20049;-81
2020/12/23 03:37:16;;;;;;;4.13;1.88;;;;;;;;;;5030165;28;20042;-80
2020/12/23 03:39:42;;;;;;;3.33;1.98;;;;;;;;;;5019863;28;20045;-81
2020/12/23 03:42:08;;;;;;;3.70;2.30;;;;;;;;;;5024795;28;20051;-81
2020/12/23 03:44:34;;;;;;;4.40;2.40;;;;;;;;;;5027411;28;20080;-81
2020/12/23 03:47:00;;;;;;;4.55;2.28;;;;;;;;;;5020748;28;20567;-80
2020/12/23 03:49:26;;;;;;;4.80;1.98;;;;;;;;;;5022800;28;20479;-81
2020/12/23 03:51:53;;;;;;;4.15;1.80;;;;;;;;;;5026000;28;20045;-81
2020/12/23 03:54:19;;;;;;;3.88;2.35;;;;;;;;;;5030667;28;20052;-81
2020/12/23 03:56:45;;;;;;;5.43;2.00;;;;;;;;;;5026342;28;20049;-81
2020/12/23 03:59:11;;;;;;;3.25;2.00;;;;;;;;;;5025364;28;20041;-81
2020/12/23 04:01:37;;;;;;;4.35;2.50;;;;;;;;;;5028098;28;20407;-80
2020/12/23 04:04:04;;;;;;;4.68;2.28;;;;;;;;;;5027602;28;20045;-80
2020/12/23 04:06:30;;;;;;;5.05;2.20;;;;;;;;;;5024586;28;20414;-79
2020/12/23 04:08:56;;;;;;;3.60;2.08;;;;;;;;;;5022110;28;20050;-80
2020/12/23 04:11:22;;;;;;;4.45;2.45;;;;;;;;;;5029517;28;20050;-80
2020/12/23 04:13:49;;;;;;;3.65;2.22;;;;;;;;;;5023126;28;20053;-79
2020/12/23 04:16:15;;;;;;;3.95;2.08;;;;;;;;;;5026123;28;20422;-80
2020/12/23 04:18:42;;;;;;;4.70;2.58;;;;;;;;;;5021996;28;20045;-80
2020/12/23 04:21:08;;;;;;;4.57;2.53;;;;;;;;;;5026352;28;20617;-81
2020/12/23 04:23:34;;;;;;;4.13;2.00;;;;;;;;;;5020521;28;20052;-81
2020/12/23 04:26:01;;;;;;;3.60;1.92;;;;;;;;;;5028988;28;20049;-80
2020/12/23 04:28:28;;;;;;;3.70;2.25;;;;;;;;;;5020467;28;20050;-80
2020/12/23 04:30:54;;;;;;;3.22;1.90;;;;;;;;;;5027926;28;20053;-80
2020/12/23 04:33:20;;;;;;;4.40;2.20;;;;;;;;;;5024326;28;20057;-80
2020/12/23 04:36:06;;;;;;;3.20;2.20;;;;;;;;;;5023234;28;20450;-80
2020/12/23 04:38:32;;;;;;;4.00;2.00;;;;;;;;;;5028787;28;20053;-77
2020/12/23 04:40:59;;;;;;;4.95;1.90;;;;;;;;;;5025719;28;20091;-77
2020/12/23 04:43:25;;;;;;;2.65;1.70;;;;;;;;;;5021320;28;20053;-77
2020/12/23 04:45:52;;;;;;;2.72;1.90;;;;;;;;;;5023686;28;20065;-78
2020/12/23 04:48:25;;;;;;;3.15;2.08;;;;;;;;;;5018611;28;20049;-77
2020/12/23 04:50:55;;;;;;;4.78;2.05;;;;;;;;;;5027306;28;20137;-78
2020/12/23 04:53:21;;;;;;;2.70;1.75;;;;;;;;;;5018667;28;20136;-78
2020/12/23 04:55:48;;;;;;;4.65;2.28;;;;;;;;;;5023189;28;20057;-79
2020/12/23 04:58:14;;;;;;;3.78;2.20;;;;;;;;;;5025248;28;20138;-77
2020/12/23 05:00:40;;;;;;;4.40;2.10;;;;;;;;;;5018804;28;20042;-78
2020/12/23 05:03:07;;;;;;;5.18;2.40;;;;;;;;;;5020233;28;20049;-79
2020/12/23 05:05:33;;;;;;;3.58;2.10;;;;;;;;;;5017177;28;20050;-79
2020/12/23 05:07:59;;;;;;;2.92;1.75;;;;;;;;;;5022784;28;20187;-78
2020/12/23 05:10:28;;;;;;;4.45;2.00;;;;;;;;;;5023668;28;20543;-79
2020/12/23 05:12:55;;;;;;;3.92;2.30;;;;;;;;;;5027243;28;20045;-79
2020/12/23 05:15:22;;;;;;;5.15;2.30;;;;;;;;;;5024660;28;20055;-79
2020/12/23 05:17:49;;;;;;;3.47;2.03;;;;;;;;;;5019829;28;20065;-79
2020/12/23 05:20:15;;;;;;;4.20;2.15;;;;;;;;;;5023275;28;20057;-82
2020/12/23 05:22:45;;;;;;;8.68;2.28;;;;;;;;;;5025368;28;20045;-80
2020/12/23 05:25:12;;;;;;;5.20;2.00;;;;;;;;;;5019796;28;20053;-80
2020/12/23 05:27:40;;;;;;;3.22;1.83;;;;;;;;;;5020443;28;23587;-79
2020/12/23 05:30:06;;;;;;;3.20;1.70;;;;;;;;;;5019551;28;20088;-80
2020/12/23 05:35:33;;;;;;;3.17;2.00;;;;;;;;;;4974097;28;20049;-82
2020/12/23 05:38:03;;;;;;;4.63;1.65;;;;;;;;;;4992532;28;20043;-81
2020/12/23 05:40:38;;;;;;;3.05;1.75;;;;;;;;;;4983368;28;20053;-81
2020/12/23 05:43:07;;;;;;;;;;;;;;;;;;4993991;28;20420;-80
2020/12/23 05:45:33;;;;;;;2.85;1.77;;;;;;;;;;4979417;28;19922;-80
2020/12/23 05:47:59;;;;;;;2.97;1.73;;;;;;;;;;4992492;28;20065;-80
2020/12/23 05:50:25;;;;;;;3.65;1.65;;;;;;;;;;4987046;28;20122;-80
2020/12/23 05:52:55;;;;;;;2.80;1.58;;;;;;;;;;4986097;28;20057;-80
2020/12/23 05:55:21;;;;;;;2.72;1.80;;;;;;;;;;4984455;28;20157;-80
2020/12/23 05:57:47;;;;;;;3.03;1.60;;;;;;;;;;4987526;28;20173;-81
2020/12/23 06:00:13;;;;;;;4.65;1.92;;;;;;;;;;4991223;28;20050;-81
2020/12/23 06:03:09;;;;;;;2.42;1.52;;;;;;;;;;4989331;28;20146;-79
2020/12/23 06:05:42;;;;;;;3.47;2.17;;;;;;;;;;4949435;28;20100;-81
2020/12/23 06:08:08;;;;;;;3.28;2.03;;;;;;;;;;4980141;28;20065;-80
2020/12/23 06:10:36;;;;;;;2.40;1.60;;;;;;;;;;4966157;28;20113;-80
2020/12/23 06:13:09;;;;;;;2.63;1.67;;;;;;;;;;4980648;28;20469;-80
2020/12/23 06:15:38;;;;;;;2.97;1.85;;;;;;;;;;4987475;28;20042;-79
2020/12/23 06:18:09;;;;;;;3.83;2.10;;;;;;;;;;4981273;28;20042;-79
2020/12/23 06:20:36;;;;;;;3.17;1.80;;;;;;;;;;4979403;28;20492;-80
2020/12/23 06:23:02;;;;;;;2.67;1.73;;;;;;;;;;4987999;28;20580;-80
2020/12/23 06:25:31;;;;;;;3.40;2.20;;;;;;;;;;4986357;28;20042;-81
2020/12/23 06:28:15;;;;;;;4.88;1.75;;;;;;;;;;4982941;28;20054;-81
2020/12/23 06:30:41;;;;;;;2.47;1.20;;;;;;;;;;4985769;28;20061;-84
2020/12/23 06:33:08;;;;;;;3.22;1.90;;;;;;;;;;4987380;28;20049;-82
2020/12/23 06:35:35;;;;;;;2.90;1.77;;;;;;;;;;4988346;28;20046;-84
2020/12/23 06:38:18;;;;;;;4.65;2.13;;;;;;;;;;4966238;28;20047;-85
2020/12/23 06:40:58;;;;;;;2.92;1.70;;;;;;;;;;4983680;28;20054;-81
2020/12/23 06:43:42;;;;;;;3.42;1.80;;;;;;;;;;4982542;28;20548;-80
2020/12/23 06:46:09;;;;;;;3.97;1.88;;;;;;;;;;4983943;28;20054;-80
2020/12/23 06:48:35;;;;;;;3.45;1.83;;;;;;;;;;4988694;28;20455;-80
2020/12/23 06:51:35;;;;;;;2.30;1.70;;;;;;;;;;4972681;28;20057;-84
2020/12/23 06:54:35;;;;;;;3.47;2.05;;;;;;;;;;4981932;28;20042;-79
2020/12/23 06:57:01;;;;;;;3.97;1.65;;;;;;;;;;4981603;28;20416;-88
2020/12/23 06:59:45;;;;;;;3.00;1.90;;;;;;;;;;4984584;28;20499;-83
2020/12/23 07:02:13;;;;;;;5.35;1.90;;;;;;;;;;4981333;28;20056;-82
2020/12/23 07:04:47;;;;;;;4.78;1.67;;;;;;;;;;4986770;28;20085;-77
2020/12/23 07:07:26;;;;;;;3.47;1.38;;;;;;;;;;4987028;28;20133;-83
2020/12/23 07:09:53;;;;;;;3.15;1.75;;;;;;;;;;4979290;28;20424;-79
2020/12/23 07:12:22;;;;;;;3.20;1.65;;;;;;;;;;4983910;28;20563;-92
2020/12/23 07:15:04;;;;;;;2.05;1.20;;;;;;;;;;4967229;28;20078;-79
2020/12/23 07:17:40;;;;;;;6.40;1.50;;;;;;;;;;4988766;28;20137;-81
2020/12/23 07:20:13;;;;;;;3.10;1.70;;;;;;;;;;4983957;28;20065;-82
2020/12/23 07:22:39;;;;;;;3.28;1.88;;;;;;;;;;4986244;28;20503;-82
2020/12/23 07:25:16;;;;;;;3.17;1.70;;;;;;;;;;4985209;28;20411;-81
2020/12/23 07:27:44;;;;;;;2.97;1.70;;;;;;;;;;4978699;28;20153;-82
2020/12/23 07:30:10;;;;;;;2.75;1.80;;;;;;;;;;4984274;28;20082;-83
2020/12/23 07:32:36;;;;;;;2.38;1.40;;;;;;;;;;4977241;28;20129;-82
2020/12/23 07:35:06;;;;;;;3.03;1.73;;;;;;;;;;4982961;28;20061;-83
2020/12/23 07:37:41;;;;;;;2.42;1.45;;;;;;;;;;4984185;28;20556;-81
2020/12/23 07:40:20;;;;;;;2.97;1.58;;;;;;;;;;4982035;28;20141;-82
2020/12/23 07:42:52;;;;;;;4.22;1.60;;;;;;;;;;4987057;28;20515;-81
2020/12/23 07:45:19;;;;;;;4.80;1.70;;;;;;;;;;4986690;28;20050;-81
2020/12/23 07:47:52;;;;;;;2.35;1.30;;;;;;;;;;4981300;28;20050;-88
2020/12/23 07:50:18;;;;;;;3.20;1.60;;;;;;;;;;4979975;28;20043;-83
2020/12/23 07:52:44;;;;;;;5.72;1.50;;;;;;;;;;4984106;28;20125;-86
2020/12/23 07:55:11;;;;;;;1.45;0.93;;;;;;;;;;4986115;28;20042;-82
2020/12/23 07:57:38;;;;;;;2.53;1.45;;;;;;;;;;4984501;28;20059;-80
2020/12/23 08:00:05;;;;;;;2.38;1.23;;;;;;;;;;4986408;28;20054;-78
2020/12/23 08:02:32;;;;;;;4.60;1.30;;;;;;;;;;4983976;28;20065;-81
2020/12/23 08:04:58;;;;;;;4.72;1.98;;;;;;;;;;4985573;28;20122;-80
2020/12/23 08:07:37;;;;;;;6.57;2.13;;;;;;;;;;4988464;28;20050;-85
2020/12/23 08:10:21;;;;;;;8.30;2.83;;;;;;;;;;4983890;28;20046;-84
2020/12/23 08:12:52;;;;;;;5.65;2.30;;;;;;;;;;4988861;28;20113;-84
2020/12/23 08:15:21;;;;;;;4.53;2.55;;;;;;;;;;4992801;28;20077;-82
2020/12/23 08:17:47;;;;;;;4.63;2.92;;;;;;;;;;4980569;28;20054;-84
2020/12/23 08:20:15;;;;;;;6.38;2.35;;;;;;;;;;4991809;28;20056;-83
2020/12/23 08:22:43;;;;;;;7.20;2.60;;;;;;;;;;4984863;28;20411;-84
2020/12/23 08:25:14;;;;;;;7.35;2.95;;;;;;;;;;4986030;28;20060;-84
2020/12/23 08:27:44;;;;;;;5.85;3.38;;;;;;;;;;4984001;28;20051;-84
2020/12/23 08:30:19;;;;;;;4.90;3.05;;;;;;;;;;4985335;28;20042;-85
2020/12/23 08:32:55;;;;;;;7.90;2.50;;;;;;;;;;4988812;28;20052;-85
2020/12/23 08:35:29;;;;;;;7.53;3.35;;;;;;;;;;4987593;28;20046;-84
2020/12/23 08:37:55;;;;;;;5.85;2.33;;;;;;;;;;4984288;28;20142;-84
2020/12/23 08:40:22;;;;;;;6.03;2.55;;;;;;;;;;4987071;28;20046;-84
2020/12/23 08:42:58;;;;;;;4.95;2.47;;;;;;;;;;4988062;28;20415;-85
2020/12/23 08:45:31;;;;;;;5.45;2.72;;;;;;;;;;4982633;28;20074;-84
2020/12/23 08:48:00;;;;;;;4.00;2.45;;;;;;;;;;4984160;28;20058;-84
2020/12/23 08:50:26;;;;;;;5.13;2.85;;;;;;;;;;4969658;28;20043;-83
2020/12/23 08:52:54;;;;;;;4.78;2.47;;;;;;;;;;4984867;28;20050;-86
2020/12/23 08:55:23;;;;;;;4.35;2.25;;;;;;;;;;4985500;28;20053;-85
2020/12/23 08:57:50;;;;;;;5.82;2.72;;;;;;;;;;4984812;28;20061;-85
2020/12/23 09:00:17;;;;;;;6.80;2.35;;;;;;;;;;4986804;28;20488;-85
2020/12/23 09:02:45;;;;;;;4.65;2.38;;;;;;;;;;4988033;28;20055;-85
2020/12/23 09:05:26;;;;;;;5.35;2.67;;;;;;;;;;4988119;28;20058;-85
2020/12/23 09:08:12;;;;;;;5.07;2.70;;;;;;;;;;4986735;28;20041;-85
2020/12/23 09:10:39;;;;;;;6.15;2.55;;;;;;;;;;4983276;28;20145;-84
2020/12/23 09:13:09;;;;;;;6.60;2.67;;;;;;;;;;4987815;28;20046;-84
2020/12/23 09:15:36;;;;;;;9.82;2.83;;;;;;;;;;4987981;28;20046;-86
2020/12/23 09:18:20;;;;;;;4.53;2.10;;;;;;;;;;4986050;28;20054;-85
2020/12/23 09:20:55;;;;;;;4.25;3.05;;;;;;;;;;4984765;28;20157;-85
2020/12/23 09:23:21;;;;;;;4.57;1.80;;;;;;;;;;4988529;28;20052;-87
2020/12/23 09:25:48;;;;;;;3.13;1.45;;;;;;;;;;4983087;28;20129;-87
2020/12/23 09:28:14;;;;;;;6.57;1.88;;;;;;;;;;4992635;28;20132;-91
2020/12/23 09:30:59;;;;;;;5.20;2.40;;;;;;;;;;4987183;28;20046;-85
2020/12/23 09:33:25;;;;;;;7.82;2.88;;;;;;;;;;4993590;28;20074;-93
2020/12/23 09:36:03;;;;;;;4.78;2.10;;;;;;;;;;4990684;28;20054;-86
2020/12/23 09:38:35;;;;;;;11.00;2.47;;;;;;;;;;4986468;28;20106;-86
2020/12/23 09:41:18;;;;;;;7.03;1.95;;;;;;;;;;4988950;28;20077;-93
2020/12/23 09:44:16;;;;;;;6.18;2.15;;;;;;;;;;4983431;28;20515;-84
2020/12/23 09:46:48;;;;;;;4.07;2.20;;;;;;;;;;4987242;28;20121;-87
2020/12/23 09:49:14;;;;;;;3.65;2.08;;;;;;;;;;4986792;28;20133;-88
2020/12/23 09:51:45;;;;;;;6.82;1.80;;;;;;;;;;4986900;28;20047;-95
2020/12/23 09:54:11;;;;;;;5.47;2.17;;;;;;;;;;4989270;28;20054;-87
2020/12/23 09:56:45;;;;;;;6.97;2.38;;;;;;;;;;4982409;28;20137;-82
2020/12/23 09:59:20;;;;;;;10.88;1.98;;;;;;;;;;4978192;28;20043;-83
2020/12/23 10:01:47;;;;;;;3.05;1.63;;;;;;;;;;4985851;28;20498;-87
2020/12/23 10:04:14;;;;;;;8.40;2.50;;;;;;;;;;4985640;28;20058;-81
2020/12/23 10:06:51;;;;;;;15.35;4.35;;;;;;;;;;4984232;28;20142;-80
2020/12/23 10:09:33;;;;;;;5.55;2.58;;;;;;;;;;4980416;28;20042;-77
2020/12/23 10:12:28;;;;;;;5.63;2.80;;;;;;;;;;4981049;28;20046;-80
2020/12/23 10:15:22;;;;;;;8.20;2.13;;;;;;;;;;4984721;28;20471;-80
2020/12/23 10:18:20;;;;;;;7.72;2.20;;;;;;;;;;4937312;28;20555;-79
2020/12/23 10:21:23;;;;;;;8.25;3.17;;;;;;;;;;4974947;28;20051;-80
2020/12/23 10:24:19;;;;;;;5.40;1.60;;;;;;;;;;4969711;28;20511;-79
2020/12/23 10:27:23;;;;;;;4.57;2.30;;;;;;;;;;4967705;28;20437;-80
2020/12/23 10:30:14;;;;;;;8.48;2.03;;;;;;;;;;4958395;28;20062;-80
2020/12/23 10:32:58;;;;;;;;;;;;;;;;;;4961915;28;20081;-80
2020/12/23 10:35:27;;;;;;;5.25;2.70;;;;;;;;;;4937101;29;20010;-80
2020/12/23 10:38:04;;;;;;;4.78;1.70;;;;;;;;;;4930041;29;20058;-80
2020/12/23 10:40:31;;;;;;;7.30;2.17;;;;;;;;;;4936291;29;20150;-80
2020/12/23 10:42:58;;;;;;;5.28;2.03;;;;;;;;;;4933501;29;20134;-81
2020/12/23 10:45:24;;;;;;;5.90;1.80;;;;;;;;;;4933569;29;20118;-80
2020/12/23 10:47:50;;;;;;;3.45;1.95;;;;;;;;;;4926782;29;20058;-80
2020/12/23 10:50:16;;;;;;;6.15;1.90;;;;;;;;;;4932257;29;20051;-79
2020/12/23 10:52:42;;;;;;;3.75;1.45;;;;;;;;;;4938745;29;20652;-80
2020/12/23 10:55:08;;;;;;;3.33;1.73;;;;;;;;;;4927501;29;20066;-79
2020/12/23 10:57:34;;;;;;;3.53;1.40;;;;;;;;;;4943192;28;20393;-80
2020/12/23 11:00:02;;;;;;;5.70;2.05;;;;;;;;;;4942676;28;20454;-79
2020/12/23 11:02:28;;;;;;;4.38;1.85;;;;;;;;;;4954315;28;20053;-79
2020/12/23 11:04:54;;;;;;;5.70;1.85;;;;;;;;;;4943717;28;20088;-80
2020/12/23 11:07:23;;;;;;;5.85;2.00;;;;;;;;;;4948407;28;20047;-80
2020/12/23 11:09:50;;;;;;;4.85;1.75;;;;;;;;;;4951637;28;20498;-81
2020/12/23 11:12:16;;;;;;;6.05;2.10;;;;;;;;;;4938597;28;20082;-81
2020/12/23 11:14:44;;;;;;;4.43;2.83;;;;;;;;;;4949334;28;20410;-80
2020/12/23 11:17:13;;;;;;;4.75;1.90;;;;;;;;;;4950102;28;20047;-81
2020/12/23 11:19:39;;;;;;;4.57;2.15;;;;;;;;;;4941973;28;20058;-80
2020/12/23 11:22:06;;;;;;;6.32;2.03;;;;;;;;;;4939365;28;20052;-80
2020/12/23 11:24:32;;;;;;;3.25;1.52;;;;;;;;;;4943683;28;20062;-80
2020/12/23 11:26:59;;;;;;;2.80;1.20;;;;;;;;;;4951453;28;20596;-80
2020/12/23 11:29:25;;;;;;;5.35;2.40;;;;;;;;;;4951908;28;20046;-81
2020/12/23 11:31:52;;;;;;;3.53;1.42;;;;;;;;;;4946617;28;20043;-81
2020/12/23 11:34:19;;;;;;;4.22;1.85;;;;;;;;;;4971609;28;20050;-81
2020/12/23 11:36:58;;;;;;;4.88;2.85;;;;;;;;;;4987469;28;20465;-81
2020/12/23 11:39:24;;;;;;;5.10;2.33;;;;;;;;;;4987954;28;20149;-80
2020/12/23 11:42:08;;;;;;;5.40;1.90;;;;;;;;;;4994816;28;20054;-80
2020/12/23 11:44:34;;;;;;;3.80;2.00;;;;;;;;;;4987425;28;20056;-80
2020/12/23 11:47:09;;;;;;;4.72;2.10;;;;;;;;;;4991516;28;20046;-81
2020/12/23 11:49:35;;;;;;;4.10;2.22;;;;;;;;;;4991003;28;20125;-80
2020/12/23 11:52:01;;;;;;;4.25;2.10;;;;;;;;;;4986431;28;20197;-80
2020/12/23 11:54:28;;;;;;;4.45;1.52;;;;;;;;;;4986217;28;20133;-81
2020/12/23 11:56:54;;;;;;;6.28;1.95;;;;;;;;;;4982125;28;20511;-81
2020/12/23 11:59:22;;;;;;;3.55;2.05;;;;;;;;;;4990160;28;20125;-81
2020/12/23 12:01:48;;;;;;;4.70;2.05;;;;;;;;;;4985956;28;20471;-81
2020/12/23 12:04:17;;;;;;;4.65;1.98;;;;;;;;;;4985873;28;20133;-81
2020/12/23 12:06:43;;;;;;;4.30;2.63;;;;;;;;;;4990490;28;20058;-81
2020/12/23 12:09:09;;;;;;;7.03;1.60;;;;;;;;;;4990592;28;20294;-81
2020/12/23 12:11:35;;;;;;;4.43;1.67;;;;;;;;;;4984977;28;20122;-81
2020/12/23 12:14:02;;;;;;;3.30;1.20;;;;;;;;;;4989894;28;20485;-81
2020/12/23 12:16:28;;;;;;;3.45;1.80;;;;;;;;;;4987790;28;20456;-81
2020/12/23 12:19:13;;;;;;;5.07;1.77;;;;;;;;;;4985668;28;20057;-82
2020/12/23 12:21:39;;;;;;;4.13;1.73;;;;;;;;;;4986226;28;20054;-82
2020/12/23 12:24:07;;;;;;;2.78;1.55;;;;;;;;;;4986542;28;20053;-81
2020/12/23 12:26:34;;;;;;;2.92;1.48;;;;;;;;;;4991833;28;20046;-81
2020/12/23 12:29:00;;;;;;;4.30;1.90;;;;;;;;;;4988678;28;20129;-81
2020/12/23 12:31:28;;;;;;;4.03;1.58;;;;;;;;;;4988042;28;20150;-81
2020/12/23 12:33:55;;;;;;;3.08;1.40;;;;;;;;;;4994034;28;20090;-81
2020/12/23 12:36:22;;;;;;;6.00;1.50;;;;;;;;;;4979299;28;20042;-81
2020/12/23 12:38:48;;;;;;;4.72;1.50;;;;;;;;;;4982765;28;20137;-81
2020/12/23 12:41:21;;;;;;;3.35;1.67;;;;;;;;;;4984625;28;20060;-81
2020/12/23 12:43:47;;;;;;;3.25;1.27;;;;;;;;;;4982459;28;20052;-79
2020/12/23 12:46:14;;;;;;;4.97;1.55;;;;;;;;;;4989123;28;20059;-78
2020/12/23 12:48:41;;;;;;;4.07;1.80;;;;;;;;;;4986708;28;20501;-78
2020/12/23 12:51:07;;;;;;;2.90;1.63;;;;;;;;;;4986539;28;20502;-78
2020/12/23 12:53:39;;;;;;;3.85;1.70;;;;;;;;;;4985789;28;20112;-80
2020/12/23 12:56:39;;;;;;;3.20;1.60;;;;;;;;;;5017169;23;20144;-78
2020/12/23 12:59:43;;;;;;;3.72;1.60;;;;;;;;;;4992587;28;20053;-78
2020/12/23 13:02:14;;;;;;;1.27;0.90;;;;;;;;;;4981264;28;20054;-78
2020/12/23 13:05:07;;;;;;;1.65;0.98;;;;;;;;;;4984764;28;20060;-78
2020/12/23 13:07:34;;;;;;;3.50;1.25;;;;;;;;;;4987423;28;20054;-78
2020/12/23 13:10:09;;;;;;;2.13;1.40;;;;;;;;;;4983036;28;20456;-77
2020/12/23 13:12:49;;;;;;;3.08;0.95;;;;;;;;;;4989065;28;20038;-79
2020/12/23 13:15:15;;;;;;;;;;;;;;;;;;4990513;28;20484;-79
2020/12/23 13:17:42;;;;;;;2.97;1.10;;;;;;;;;;4988072;28;19939;-79
2020/12/23 13:20:08;;;;;;;2.08;1.20;;;;;;;;;;4982765;28;20137;-74
2020/12/23 13:22:37;;;;;;;3.27;1.37;;;;;;;;;;4986863;28;20050;-72
2020/12/23 13:25:03;;;;;;;2.42;1.52;;;;;;;;;;4985520;28;20101;-72
2020/12/23 13:27:29;;;;;;;4.03;2.30;;;;;;;;;;4983819;28;20059;-72
2020/12/23 13:30:08;;;;;;;4.50;1.50;;;;;;;;;;4979983;28;20042;-74
2020/12/23 13:32:34;;;;;;;6.15;2.15;;;;;;;;;;4979805;28;20053;-72
2020/12/23 13:35:00;;;;;;;6.45;2.60;;;;;;;;;;4981822;28;20051;-71
2020/12/23 13:37:26;;;;;;;3.50;2.13;;;;;;;;;;4980109;28;20054;-73
2020/12/23 13:39:53;;;;;;;3.70;2.75;;;;;;;;;;4983108;28;20082;-72
2020/12/23 13:42:19;;;;;;;6.20;3.17;;;;;;;;;;4987532;28;20158;-72
2020/12/23 13:44:45;;;;;;;5.53;2.55;;;;;;;;;;4981224;28;20043;-74
2020/12/23 13:47:11;;;;;;;7.18;3.83;;;;;;;;;;4983821;28;20050;-74
2020/12/23 13:49:37;;;;;;;5.75;3.17;;;;;;;;;;4982106;28;20042;-74
2020/12/23 13:52:04;;;;;;;4.70;3.33;;;;;;;;;;4979728;28;20047;-74
2020/12/23 13:54:33;;;;;;;6.07;2.70;;;;;;;;;;4994696;28;20065;-74
2020/12/23 13:57:01;;;;;;;4.45;2.95;;;;;;;;;;4993655;28;20070;-74
2020/12/23 13:59:28;;;;;;;6.43;3.00;;;;;;;;;;5005386;28;20053;-74
2020/12/23 14:01:54;;;;;;;5.07;2.25;;;;;;;;;;5001277;28;20049;-74
2020/12/23 14:04:20;;;;;;;3.95;2.53;;;;;;;;;;5000711;28;20046;-74
2020/12/23 14:06:46;;;;;;;5.45;2.40;;;;;;;;;;4999485;28;20543;-75
2020/12/23 14:09:12;;;;;;;4.47;2.40;;;;;;;;;;5002371;28;20050;-72
2020/12/23 14:11:38;;;;;;;4.97;2.40;;;;;;;;;;5001281;28;20145;-74
2020/12/23 14:14:04;;;;;;;6.30;2.22;;;;;;;;;;4989048;28;20045;-73
2020/12/23 14:16:31;;;;;;;6.45;2.10;;;;;;;;;;5002012;28;20056;-75
2020/12/23 14:18:57;;;;;;;4.93;1.75;;;;;;;;;;5000791;28;20537;-74
2020/12/23 14:21:25;;;;;;;7.95;2.33;;;;;;;;;;4996614;28;20050;-74
2020/12/23 14:23:53;;;;;;;4.88;1.70;;;;;;;;;;5004904;28;20552;-72
2020/12/23 14:26:20;;;;;;;2.83;1.50;;;;;;;;;;4996752;28;20402;-73
2020/12/23 14:28:46;;;;;;;3.85;1.27;;;;;;;;;;5003066;28;20068;-73
2020/12/23 14:31:13;;;;;;;9.90;2.13;;;;;;;;;;5001734;28;20046;-74
2020/12/23 14:33:40;;;;;;;5.10;1.48;;;;;;;;;;5002915;28;20211;-74
2020/12/23 14:36:09;;;;;;;7.25;1.50;;;;;;;;;;4996740;28;20133;-76
2020/12/23 14:38:38;;;;;;;3.45;1.10;;;;;;;;;;4996982;28;20443;-76
2020/12/23 14:41:04;;;;;;;4.10;1.48;;;;;;;;;;5000101;28;20092;-76
2020/12/23 14:43:30;;;;;;;2.95;1.85;;;;;;;;;;5001792;28;20049;-76
2020/12/23 14:45:56;;;;;;;6.20;1.52;;;;;;;;;;5001779;28;20068;-76
2020/12/23 14:48:23;;;;;;;2.80;1.42;;;;;;;;;;5000560;28;20412;-75
2020/12/23 14:50:49;;;;;;;7.40;1.65;;;;;;;;;;4979050;28;20145;-76
2020/12/23 14:53:15;;;;;;;3.22;1.63;;;;;;;;;;5003283;28;20046;-75
2020/12/23 14:55:43;;;;;;;2.80;1.38;;;;;;;;;;4998536;28;20519;-76
2020/12/23 14:58:09;;;;;;;4.43;1.30;;;;;;;;;;4998638;28;20046;-76
2020/12/23 15:00:35;;;;;;;4.05;1.60;;;;;;;;;;4999322;28;20053;-75